createdAt,value
2019-05-25T00:00:51.972Z,6.82
2019-05-25T00:05:59.567Z,7.70
2019-05-25T00:11:07.197Z,7.37
2019-05-25T00:16:14.827Z,6.46
2019-05-25T00:21:22.437Z,8.53
2019-05-25T00:26:30.037Z,6.10
2019-05-25T00:31:37.687Z,5.72
2019-05-25T00:36:45.271Z,6.99
2019-05-25T00:41:52.928Z,4.87
2019-05-25T00:47:00.533Z,5.12
2019-05-25T00:52:08.208Z,4.89
2019-05-25T00:57:15.751Z,6.31
2019-05-25T01:02:23.378Z,5.41
2019-05-25T01:07:30.956Z,5.74
2019-05-25T01:12:38.614Z,5.10
2019-05-25T01:17:46.199Z,6.21
2019-05-25T01:22:53.835Z,6.86
2019-05-25T01:28:01.420Z,5.64
2019-05-25T01:33:09.041Z,6.45
2019-05-25T01:38:16.641Z,5.72
2019-05-25T01:43:24.303Z,6.47
2019-05-25T01:48:31.899Z,6.00
2019-05-25T01:53:39.522Z,6.80
2019-05-25T01:58:47.126Z,7.41
2019-05-25T02:03:54.768Z,6.08
2019-05-25T02:09:02.378Z,6.43
2019-05-25T02:14:10.047Z,8.45
2019-05-25T02:19:17.664Z,7.54
2019-05-25T02:24:25.302Z,7.85
2019-05-25T02:29:32.916Z,6.73
2019-05-25T02:34:40.598Z,8.88
2019-05-25T02:39:48.196Z,7.11
2019-05-25T02:44:55.886Z,8.23
2019-05-25T02:50:03.474Z,9.19
2019-05-25T02:55:11.121Z,7.90
2019-05-25T03:00:18.574Z,7.28
2019-05-25T03:05:26.249Z,8.44
2019-05-25T03:10:33.846Z,7.60
2019-05-25T03:15:41.508Z,8.76
2019-05-25T03:20:49.075Z,8.60
2019-05-25T03:25:56.712Z,9.59
2019-05-25T03:31:04.318Z,10.63
2019-05-25T03:36:11.944Z,10.16
2019-05-25T03:41:19.554Z,12.68
2019-05-25T03:46:27.233Z,13.45
2019-05-25T03:51:34.818Z,11.25
2019-05-25T03:56:42.478Z,11.70
2019-05-25T04:01:50.085Z,11.58
2019-05-25T04:06:57.791Z,11.94
2019-05-25T04:12:05.384Z,12.81
2019-05-25T04:17:13.076Z,10.76
2019-05-25T04:22:20.690Z,10.42
2019-05-25T04:27:28.326Z,10.56
2019-05-25T04:32:35.944Z,10.46
2019-05-25T04:37:43.556Z,11.27
2019-05-25T04:42:51.142Z,8.88
2019-05-25T04:47:58.805Z,9.63
2019-05-25T04:53:06.388Z,10.41
2019-05-25T04:58:14.055Z,8.97
2019-05-25T05:03:21.632Z,9.77
2019-05-25T05:08:29.279Z,9.35
2019-05-25T05:13:36.901Z,7.61
2019-05-25T05:18:44.566Z,8.78
2019-05-25T05:23:52.187Z,8.42
2019-05-25T05:28:59.843Z,9.90
2019-05-25T05:34:07.436Z,8.79
2019-05-25T05:39:15.114Z,8.21
2019-05-25T05:44:22.707Z,9.43
2019-05-25T05:49:30.362Z,9.01
2019-05-25T05:54:37.961Z,8.82
2019-05-25T05:59:45.606Z,10.12
2019-05-25T06:04:53.199Z,8.06
2019-05-25T06:10:00.905Z,9.33
2019-05-25T06:15:08.503Z,7.95
2019-05-25T06:20:16.180Z,8.43
2019-05-25T06:25:23.775Z,8.97
2019-05-25T06:30:31.405Z,8.29
2019-05-25T06:35:39.039Z,7.55
2019-05-25T06:40:46.654Z,8.77
2019-05-25T06:45:54.254Z,7.59
2019-05-25T06:51:01.949Z,8.37
2019-05-25T06:56:09.570Z,6.74
2019-05-25T07:01:17.218Z,8.06
2019-05-25T07:06:24.818Z,8.22
2019-05-25T07:11:32.439Z,9.36
2019-05-25T07:16:40.025Z,8.74
2019-05-25T07:21:47.687Z,8.66
2019-05-25T07:26:55.302Z,9.70
2019-05-25T07:32:03.153Z,9.77
2019-05-25T07:37:10.738Z,11.24
2019-05-25T07:42:20.065Z,10.48
2019-05-25T07:47:25.471Z,11.58
2019-05-25T07:52:33.118Z,10.36
2019-05-25T07:57:40.696Z,11.74
2019-05-25T08:02:48.179Z,10.54
2019-05-25T08:07:55.756Z,10.65
2019-05-25T08:13:03.404Z,10.56
2019-05-25T08:18:10.987Z,10.86
2019-05-25T08:23:18.758Z,10.10
2019-05-25T08:28:32.605Z,11.00
2019-05-25T08:33:33.537Z,13.13
2019-05-25T08:38:41.207Z,12.27
2019-05-25T08:43:48.801Z,11.72
2019-05-25T08:48:56.400Z,10.85
2019-05-25T08:54:04.054Z,10.64
2019-05-25T08:59:11.645Z,10.74
2019-05-25T09:04:19.386Z,10.12
2019-05-25T09:09:26.965Z,9.55
2019-05-25T09:14:34.653Z,11.82
2019-05-25T09:19:42.242Z,9.35
2019-05-25T09:24:49.873Z,9.12
2019-05-25T09:29:57.464Z,9.87
2019-05-25T09:35:05.299Z,8.39
2019-05-25T09:40:12.881Z,7.87
2019-05-25T09:45:20.504Z,8.70
2019-05-25T09:50:28.088Z,7.38
2019-05-25T09:55:35.758Z,7.60
2019-05-25T10:00:43.338Z,5.85
2019-05-25T10:05:50.960Z,7.36
2019-05-25T10:10:58.548Z,7.52
2019-05-25T10:16:06.254Z,7.83
2019-05-25T10:21:15.077Z,7.27
2019-05-25T10:26:23.049Z,8.15
2019-05-25T10:31:28.167Z,7.10
2019-05-25T10:36:35.879Z,7.62
2019-05-25T10:41:43.478Z,9.02
2019-05-25T10:46:51.112Z,8.06
2019-05-25T10:51:58.722Z,6.29
2019-05-25T10:57:06.343Z,6.36
2019-05-25T11:02:13.973Z,6.63
2019-05-25T11:07:21.638Z,7.90
2019-05-25T11:12:29.240Z,6.49
2019-05-25T11:17:36.913Z,7.98
2019-05-25T11:22:44.506Z,8.52
2019-05-25T11:27:52.146Z,7.62
2019-05-25T11:32:59.754Z,6.76
2019-05-25T11:38:07.391Z,7.23
2019-05-25T11:43:15.014Z,8.19
2019-05-25T11:48:22.675Z,8.79
2019-05-25T11:53:30.270Z,8.54
2019-05-25T11:58:46.877Z,6.21
2019-05-25T12:03:45.052Z,8.83
2019-05-25T12:08:52.683Z,8.97
2019-05-25T12:14:00.266Z,9.79
2019-05-25T12:19:07.951Z,8.90
2019-05-25T12:24:15.543Z,9.88
2019-05-25T12:29:23.191Z,6.40
2019-05-25T12:34:30.774Z,8.16
2019-05-25T12:39:38.449Z,6.06
2019-05-25T12:44:46.040Z,8.24
2019-05-25T12:49:53.704Z,8.17
2019-05-25T12:55:01.301Z,6.85
2019-05-25T13:00:15.918Z,7.27
2019-05-25T13:05:16.020Z,6.56
2019-05-25T13:10:23.639Z,8.31
2019-05-25T13:15:31.248Z,9.30
2019-05-25T13:20:38.898Z,9.33
2019-05-25T13:25:46.505Z,10.00
2019-05-25T13:30:54.181Z,9.13
2019-05-25T13:36:01.788Z,9.80
2019-05-25T13:41:09.426Z,9.59
2019-05-25T13:46:17.016Z,9.08
2019-05-25T13:51:24.753Z,10.92
2019-05-25T13:56:32.345Z,10.13
2019-05-25T14:01:40.141Z,10.45
2019-05-25T14:06:47.738Z,12.05
2019-05-25T14:11:55.375Z,7.48
2019-05-25T14:17:02.973Z,10.11
2019-05-25T14:22:10.609Z,10.67
2019-05-25T14:27:18.205Z,8.72
2019-05-25T14:32:25.884Z,8.55
2019-05-25T14:37:33.498Z,8.21
2019-05-25T14:42:41.160Z,7.54
2019-05-25T14:47:48.751Z,7.16
2019-05-25T14:52:56.403Z,6.94
2019-05-25T14:58:04.003Z,7.47
2019-05-25T15:03:11.877Z,6.44
2019-05-25T15:08:19.493Z,6.83
2019-05-25T15:13:27.112Z,6.96
2019-05-25T15:18:34.711Z,5.86
2019-05-25T15:23:42.383Z,7.64
2019-05-25T15:28:49.985Z,6.80
2019-05-25T15:33:57.657Z,7.74
2019-05-25T15:39:05.244Z,6.99
2019-05-25T15:44:12.907Z,7.26
2019-05-25T15:49:20.479Z,7.84
2019-05-25T15:54:28.149Z,8.24
2019-05-25T15:59:35.751Z,6.72
2019-05-25T16:04:43.356Z,7.17
2019-05-25T16:09:50.963Z,6.91
2019-05-25T16:14:58.625Z,7.38
2019-05-25T16:20:06.219Z,6.59
2019-05-25T16:25:13.829Z,7.15
2019-05-25T16:30:21.419Z,8.37
2019-05-25T16:35:29.031Z,6.81
2019-05-25T16:40:36.620Z,6.61
2019-05-25T16:45:44.389Z,7.08
2019-05-25T16:50:52.003Z,7.25
2019-05-25T16:55:59.651Z,7.29
2019-05-25T17:01:07.235Z,7.47
2019-05-25T17:06:14.865Z,8.33
2019-05-25T17:11:22.461Z,8.44
2019-05-25T17:16:30.087Z,7.62
2019-05-25T17:21:37.693Z,6.28
2019-05-25T17:26:45.470Z,7.18
2019-05-25T17:31:53.077Z,6.03
2019-05-25T17:37:00.724Z,6.51
2019-05-25T17:42:08.363Z,5.97
2019-05-25T17:47:16.051Z,8.09
2019-05-25T17:52:23.666Z,7.00
2019-05-25T17:57:31.334Z,7.42
2019-05-25T18:02:38.920Z,8.15
2019-05-25T18:07:46.550Z,7.10
2019-05-25T18:12:54.129Z,7.47
2019-05-25T18:18:01.817Z,8.76
2019-05-25T18:23:09.414Z,7.21
2019-05-25T18:28:17.115Z,6.36
2019-05-25T18:33:24.722Z,7.19
2019-05-25T18:38:32.405Z,6.16
2019-05-25T18:43:40.025Z,6.49
2019-05-25T18:48:47.683Z,7.02
2019-05-25T18:53:55.293Z,7.21
2019-05-25T18:59:02.981Z,6.01
2019-05-25T19:04:10.589Z,6.02
2019-05-25T19:09:18.222Z,6.37
2019-05-25T19:14:25.863Z,5.09
2019-05-25T19:19:33.548Z,5.24
2019-05-25T19:24:41.146Z,6.10
2019-05-25T19:29:48.890Z,6.29
2019-05-25T19:34:59.827Z,7.07
2019-05-25T19:40:08.580Z,7.93
2019-05-25T19:45:10.964Z,7.31
2019-05-25T19:50:18.579Z,8.24
2019-05-25T19:55:26.171Z,7.61
2019-05-25T20:00:33.813Z,6.90
2019-05-25T20:05:41.438Z,6.25
2019-05-25T20:10:49.088Z,8.03
2019-05-25T20:15:56.670Z,7.62
2019-05-25T20:21:04.362Z,5.82
2019-05-25T20:26:11.955Z,8.09
2019-05-25T20:31:19.653Z,8.44
2019-05-25T20:36:27.282Z,7.19
2019-05-25T20:41:34.932Z,8.23
2019-05-25T20:46:42.545Z,7.96
2019-05-25T20:51:50.203Z,7.14
2019-05-25T20:56:57.802Z,7.65
2019-05-25T21:02:05.461Z,6.75
2019-05-25T21:07:13.054Z,9.69
2019-05-25T21:12:20.675Z,8.42
2019-05-25T21:17:28.294Z,8.32
2019-05-25T21:22:35.957Z,11.21
2019-05-25T21:27:43.539Z,8.28
2019-05-25T21:32:51.215Z,7.93
2019-05-25T21:37:58.810Z,8.94
2019-05-25T21:43:06.474Z,7.95
2019-05-25T21:48:14.077Z,10.06
2019-05-25T21:53:21.832Z,8.96
2019-05-25T21:58:29.417Z,7.86
2019-05-25T22:03:37.088Z,9.80
2019-05-25T22:08:44.693Z,7.98
2019-05-25T22:13:52.322Z,9.37
2019-05-25T22:18:59.931Z,9.39
2019-05-25T22:24:07.593Z,8.88
2019-05-25T22:29:15.184Z,7.92
2019-05-25T22:34:22.877Z,9.34
2019-05-25T22:39:30.504Z,7.72
2019-05-25T22:44:38.121Z,9.12
2019-05-25T22:49:45.721Z,7.35
2019-05-25T22:54:55.063Z,8.51
2019-05-25T23:00:02.673Z,8.04
2019-05-25T23:05:10.288Z,8.18
2019-05-25T23:10:17.889Z,5.54
2019-05-25T23:15:25.584Z,6.68
2019-05-25T23:20:36.415Z,6.94
2019-05-25T23:25:40.359Z,6.23
2019-05-25T23:30:47.964Z,6.64
2019-05-25T23:35:55.650Z,6.01
2019-05-25T23:41:03.239Z,5.37
2019-05-25T23:46:10.918Z,6.39
2019-05-25T23:51:18.537Z,6.62
2019-05-25T23:56:26.211Z,5.32
